sensor_id;sensor_type;location;lat;lon;timestamp;temperature;humidity
7576;DHT22;3829;50.798;4.358;2023-02-15T00:01:46;6.20;99.90
7576;DHT22;3829;50.798;4.358;2023-02-15T00:04:17;6.10;99.90
7576;DHT22;3829;50.798;4.358;2023-02-15T00:06:43;6.20;99.90
7576;DHT22;3829;50.798;4.358;2023-02-15T00:09:09;6.20;99.90
7576;DHT22;3829;50.798;4.358;2023-02-15T00:11:35;5.90;99.90
7576;DHT22;3829;50.798;4.358;2023-02-15T00:16:42;6.10;99.90
7576;DHT22;3829;50.798;4.358;2023-02-15T00:19:09;6.10;99.90
7576;DHT22;3829;50.798;4.358;2023-02-15T00:21:35;6.00;99.90
7576;DHT22;3829;50.798;4.358;2023-02-15T00:24:03;6.00;99.90
7576;DHT22;3829;50.798;4.358;2023-02-15T00:26:29;5.90;99.90
7576;DHT22;3829;50.798;4.358;2023-02-15T00:28:55;5.80;99.90
7576;DHT22;3829;50.798;4.358;2023-02-15T00:31:21;5.90;99.90
7576;DHT22;3829;50.798;4.358;2023-02-15T00:33:47;5.90;99.90
7576;DHT22;3829;50.798;4.358;2023-02-15T00:36:14;5.80;99.90
7576;DHT22;3829;50.798;4.358;2023-02-15T00:38:41;6.00;99.90
7576;DHT22;3829;50.798;4.358;2023-02-15T00:41:08;6.00;99.90
7576;DHT22;3829;50.798;4.358;2023-02-15T00:43:34;5.80;99.90
7576;DHT22;3829;50.798;4.358;2023-02-15T00:46:00;5.90;99.90
7576;DHT22;3829;50.798;4.358;2023-02-15T00:48:26;5.80;99.90
7576;DHT22;3829;50.798;4.358;2023-02-15T00:50:53;5.70;99.90
7576;DHT22;3829;50.798;4.358;2023-02-15T00:53:20;5.60;99.90
7576;DHT22;3829;50.798;4.358;2023-02-15T00:55:46;5.60;99.90
7576;DHT22;3829;50.798;4.358;2023-02-15T00:58:12;5.60;99.90
7576;DHT22;3829;50.798;4.358;2023-02-15T01:00:39;5.60;99.90
7576;DHT22;3829;50.798;4.358;2023-02-15T01:03:06;5.60;99.90
7576;DHT22;3829;50.798;4.358;2023-02-15T01:05:32;5.50;99.90
7576;DHT22;3829;50.798;4.358;2023-02-15T01:07:58;5.50;99.90
7576;DHT22;3829;50.798;4.358;2023-02-15T01:10:25;5.50;99.90
7576;DHT22;3829;50.798;4.358;2023-02-15T01:12:52;5.60;99.90
7576;DHT22;3829;50.798;4.358;2023-02-15T01:15:18;5.60;99.90
7576;DHT22;3829;50.798;4.358;2023-02-15T01:17:44;5.60;99.90
7576;DHT22;3829;50.798;4.358;2023-02-15T01:20:17;5.50;99.90
7576;DHT22;3829;50.798;4.358;2023-02-15T01:22:42;5.50;99.90
7576;DHT22;3829;50.798;4.358;2023-02-15T01:25:08;5.50;99.90
7576;DHT22;3829;50.798;4.358;2023-02-15T01:27:33;5.50;99.90
7576;DHT22;3829;50.798;4.358;2023-02-15T01:29:59;5.60;99.90
7576;DHT22;3829;50.798;4.358;2023-02-15T01:32:25;5.60;99.90
7576;DHT22;3829;50.798;4.358;2023-02-15T01:34:52;5.60;99.90
7576;DHT22;3829;50.798;4.358;2023-02-15T01:37:18;5.50;99.90
7576;DHT22;3829;50.798;4.358;2023-02-15T01:39:43;5.50;99.90
7576;DHT22;3829;50.798;4.358;2023-02-15T01:42:10;5.50;99.90
7576;DHT22;3829;50.798;4.358;2023-02-15T01:44:57;5.50;99.90
7576;DHT22;3829;50.798;4.358;2023-02-15T01:50:12;5.40;99.90
7576;DHT22;3829;50.798;4.358;2023-02-15T01:52:44;5.30;99.90
7576;DHT22;3829;50.798;4.358;2023-02-15T01:55:12;5.30;99.90
7576;DHT22;3829;50.798;4.358;2023-02-15T01:57:39;5.20;99.90
7576;DHT22;3829;50.798;4.358;2023-02-15T02:00:06;5.20;99.90
7576;DHT22;3829;50.798;4.358;2023-02-15T02:02:34;5.20;99.90
7576;DHT22;3829;50.798;4.358;2023-02-15T02:05:02;5.20;99.90
7576;DHT22;3829;50.798;4.358;2023-02-15T02:07:34;5.00;99.90
7576;DHT22;3829;50.798;4.358;2023-02-15T02:10:03;5.00;99.90
7576;DHT22;3829;50.798;4.358;2023-02-15T02:12:29;5.10;99.90
7576;DHT22;3829;50.798;4.358;2023-02-15T02:14:55;5.00;99.90
7576;DHT22;3829;50.798;4.358;2023-02-15T02:17:41;5.10;99.90
7576;DHT22;3829;50.798;4.358;2023-02-15T02:23:36;5.00;99.90
7576;DHT22;3829;50.798;4.358;2023-02-15T02:40:01;4.80;99.90
7576;DHT22;3829;50.798;4.358;2023-02-15T02:47:52;4.80;99.90
7576;DHT22;3829;50.798;4.358;2023-02-15T02:50:26;4.80;99.90
7576;DHT22;3829;50.798;4.358;2023-02-15T02:52:54;4.90;99.90
7576;DHT22;3829;50.798;4.358;2023-02-15T02:58:18;4.80;99.90
7576;DHT22;3829;50.798;4.358;2023-02-15T03:00:53;4.90;99.90
7576;DHT22;3829;50.798;4.358;2023-02-15T03:03:27;4.90;99.90
7576;DHT22;3829;50.798;4.358;2023-02-15T03:05:57;5.00;99.90
7576;DHT22;3829;50.798;4.358;2023-02-15T03:08:26;5.10;99.90
7576;DHT22;3829;50.798;4.358;2023-02-15T03:10:55;5.00;99.90
7576;DHT22;3829;50.798;4.358;2023-02-15T03:13:22;5.00;99.90
7576;DHT22;3829;50.798;4.358;2023-02-15T03:15:49;5.00;99.90
7576;DHT22;3829;50.798;4.358;2023-02-15T03:18:42;5.00;99.90
7576;DHT22;3829;50.798;4.358;2023-02-15T03:21:10;4.90;99.90
7576;DHT22;3829;50.798;4.358;2023-02-15T03:23:56;4.80;99.90
7576;DHT22;3829;50.798;4.358;2023-02-15T03:26:24;4.80;99.90
7576;DHT22;3829;50.798;4.358;2023-02-15T03:28:53;4.80;99.90
7576;DHT22;3829;50.798;4.358;2023-02-15T03:31:21;4.70;99.90
7576;DHT22;3829;50.798;4.358;2023-02-15T03:33:56;4.70;99.90
7576;DHT22;3829;50.798;4.358;2023-02-15T03:39:02;4.80;99.90
7576;DHT22;3829;50.798;4.358;2023-02-15T03:41:35;4.80;99.90
7576;DHT22;3829;50.798;4.358;2023-02-15T03:47:06;4.80;99.90
7576;DHT22;3829;50.798;4.358;2023-02-15T03:49:57;4.80;99.90
7576;DHT22;3829;50.798;4.358;2023-02-15T03:52:26;4.80;99.90
7576;DHT22;3829;50.798;4.358;2023-02-15T03:54:53;4.80;99.90
7576;DHT22;3829;50.798;4.358;2023-02-15T03:57:28;4.80;99.90
7576;DHT22;3829;50.798;4.358;2023-02-15T04:00:21;4.80;99.90
7576;DHT22;3829;50.798;4.358;2023-02-15T04:05:43;4.90;99.90
7576;DHT22;3829;50.798;4.358;2023-02-15T04:08:09;4.90;99.90
7576;DHT22;3829;50.798;4.358;2023-02-15T04:10:35;4.90;99.90
7576;DHT22;3829;50.798;4.358;2023-02-15T04:13:30;4.90;99.90
7576;DHT22;3829;50.798;4.358;2023-02-15T04:15:56;4.90;99.90
7576;DHT22;3829;50.798;4.358;2023-02-15T04:18:39;4.80;99.90
7576;DHT22;3829;50.798;4.358;2023-02-15T04:21:24;4.90;99.90
7576;DHT22;3829;50.798;4.358;2023-02-15T04:24:09;4.80;99.90
7576;DHT22;3829;50.798;4.358;2023-02-15T04:26:54;4.80;99.90
7576;DHT22;3829;50.798;4.358;2023-02-15T04:29:22;4.80;99.90
7576;DHT22;3829;50.798;4.358;2023-02-15T04:31:49;4.80;99.90
7576;DHT22;3829;50.798;4.358;2023-02-15T04:34:14;4.70;99.90
7576;DHT22;3829;50.798;4.358;2023-02-15T04:36:40;4.60;99.90
7576;DHT22;3829;50.798;4.358;2023-02-15T04:39:07;4.70;99.90
7576;DHT22;3829;50.798;4.358;2023-02-15T04:41:33;4.80;99.90
7576;DHT22;3829;50.798;4.358;2023-02-15T04:43:59;4.70;99.90
7576;DHT22;3829;50.798;4.358;2023-02-15T04:46:26;4.70;99.90
7576;DHT22;3829;50.798;4.358;2023-02-15T04:48:52;4.60;99.90
7576;DHT22;3829;50.798;4.358;2023-02-15T04:51:19;4.70;99.90
7576;DHT22;3829;50.798;4.358;2023-02-15T04:53:44;4.70;99.90
7576;DHT22;3829;50.798;4.358;2023-02-15T04:56:10;4.80;99.90
7576;DHT22;3829;50.798;4.358;2023-02-15T04:58:36;4.80;99.90
7576;DHT22;3829;50.798;4.358;2023-02-15T05:01:02;4.80;99.90
7576;DHT22;3829;50.798;4.358;2023-02-15T05:03:28;4.60;99.90
7576;DHT22;3829;50.798;4.358;2023-02-15T05:05:54;4.70;99.90
7576;DHT22;3829;50.798;4.358;2023-02-15T05:08:19;4.70;99.90
7576;DHT22;3829;50.798;4.358;2023-02-15T05:10:47;4.70;99.90
7576;DHT22;3829;50.798;4.358;2023-02-15T05:13:14;4.70;99.90
7576;DHT22;3829;50.798;4.358;2023-02-15T05:15:39;4.70;99.90
7576;DHT22;3829;50.798;4.358;2023-02-15T05:18:05;4.60;99.90
7576;DHT22;3829;50.798;4.358;2023-02-15T05:20:33;4.60;99.90
7576;DHT22;3829;50.798;4.358;2023-02-15T05:22:58;4.60;99.90
7576;DHT22;3829;50.798;4.358;2023-02-15T05:25:24;4.70;99.90
7576;DHT22;3829;50.798;4.358;2023-02-15T05:28:11;4.70;99.90
7576;DHT22;3829;50.798;4.358;2023-02-15T05:33:12;4.70;99.90
7576;DHT22;3829;50.798;4.358;2023-02-15T05:35:38;4.60;99.90
7576;DHT22;3829;50.798;4.358;2023-02-15T05:38:03;4.50;99.90
7576;DHT22;3829;50.798;4.358;2023-02-15T05:40:29;4.50;99.90
7576;DHT22;3829;50.798;4.358;2023-02-15T05:42:55;4.50;99.90
7576;DHT22;3829;50.798;4.358;2023-02-15T05:45:22;4.50;99.90
7576;DHT22;3829;50.798;4.358;2023-02-15T05:47:48;4.60;99.90
7576;DHT22;3829;50.798;4.358;2023-02-15T05:50:13;4.60;99.90
7576;DHT22;3829;50.798;4.358;2023-02-15T05:52:39;4.70;99.90
7576;DHT22;3829;50.798;4.358;2023-02-15T05:55:05;4.70;99.90
7576;DHT22;3829;50.798;4.358;2023-02-15T05:57:31;4.70;99.90
7576;DHT22;3829;50.798;4.358;2023-02-15T05:59:57;4.70;99.90
7576;DHT22;3829;50.798;4.358;2023-02-15T06:02:22;4.70;99.90
7576;DHT22;3829;50.798;4.358;2023-02-15T06:04:48;4.80;99.90
7576;DHT22;3829;50.798;4.358;2023-02-15T06:07:13;4.80;99.90
7576;DHT22;3829;50.798;4.358;2023-02-15T06:09:39;4.90;99.90
7576;DHT22;3829;50.798;4.358;2023-02-15T06:12:05;4.90;99.90
7576;DHT22;3829;50.798;4.358;2023-02-15T06:14:31;4.90;99.90
7576;DHT22;3829;50.798;4.358;2023-02-15T06:16:56;4.80;99.90
7576;DHT22;3829;50.798;4.358;2023-02-15T06:19:22;4.80;99.90
7576;DHT22;3829;50.798;4.358;2023-02-15T06:21:48;4.80;99.90
7576;DHT22;3829;50.798;4.358;2023-02-15T06:24:14;4.80;99.90
7576;DHT22;3829;50.798;4.358;2023-02-15T06:26:40;4.80;99.90
7576;DHT22;3829;50.798;4.358;2023-02-15T06:29:05;4.70;99.90
7576;DHT22;3829;50.798;4.358;2023-02-15T06:31:31;4.70;99.90
7576;DHT22;3829;50.798;4.358;2023-02-15T06:33:56;4.70;99.90
7576;DHT22;3829;50.798;4.358;2023-02-15T06:36:29;4.70;99.90
7576;DHT22;3829;50.798;4.358;2023-02-15T06:38:55;4.70;99.90
7576;DHT22;3829;50.798;4.358;2023-02-15T06:41:21;4.70;99.90
7576;DHT22;3829;50.798;4.358;2023-02-15T06:43:47;4.70;99.90
7576;DHT22;3829;50.798;4.358;2023-02-15T06:46:12;4.60;99.90
7576;DHT22;3829;50.798;4.358;2023-02-15T06:48:38;4.50;99.90
7576;DHT22;3829;50.798;4.358;2023-02-15T06:51:03;4.50;99.90
7576;DHT22;3829;50.798;4.358;2023-02-15T06:53:29;4.50;99.90
7576;DHT22;3829;50.798;4.358;2023-02-15T06:56:02;4.50;99.90
7576;DHT22;3829;50.798;4.358;2023-02-15T06:58:28;4.50;99.90
7576;DHT22;3829;50.798;4.358;2023-02-15T07:00:54;4.60;99.90
7576;DHT22;3829;50.798;4.358;2023-02-15T07:03:19;4.40;99.90
7576;DHT22;3829;50.798;4.358;2023-02-15T07:05:45;4.60;99.90
7576;DHT22;3829;50.798;4.358;2023-02-15T07:08:12;4.60;99.90
7576;DHT22;3829;50.798;4.358;2023-02-15T07:10:38;4.50;99.90
7576;DHT22;3829;50.798;4.358;2023-02-15T07:13:04;4.50;99.90
7576;DHT22;3829;50.798;4.358;2023-02-15T07:15:29;4.50;99.90
7576;DHT22;3829;50.798;4.358;2023-02-15T07:17:57;4.80;99.90
7576;DHT22;3829;50.798;4.358;2023-02-15T07:20:23;4.80;99.90
7576;DHT22;3829;50.798;4.358;2023-02-15T07:22:49;4.90;99.90
7576;DHT22;3829;50.798;4.358;2023-02-15T07:25:16;5.00;99.90
7576;DHT22;3829;50.798;4.358;2023-02-15T07:27:41;4.90;99.90
7576;DHT22;3829;50.798;4.358;2023-02-15T07:30:10;5.10;99.90
7576;DHT22;3829;50.798;4.358;2023-02-15T07:32:36;5.20;99.90
7576;DHT22;3829;50.798;4.358;2023-02-15T07:35:22;5.30;99.90
7576;DHT22;3829;50.798;4.358;2023-02-15T07:37:47;5.30;99.90
7576;DHT22;3829;50.798;4.358;2023-02-15T07:40:13;5.30;99.90
7576;DHT22;3829;50.798;4.358;2023-02-15T07:42:39;5.30;99.90
7576;DHT22;3829;50.798;4.358;2023-02-15T07:45:05;5.40;99.90
7576;DHT22;3829;50.798;4.358;2023-02-15T07:47:30;5.40;99.90
7576;DHT22;3829;50.798;4.358;2023-02-15T07:49:56;5.40;99.90
7576;DHT22;3829;50.798;4.358;2023-02-15T07:52:21;5.60;99.90
7576;DHT22;3829;50.798;4.358;2023-02-15T07:54:47;5.50;99.90
7576;DHT22;3829;50.798;4.358;2023-02-15T07:57:13;5.50;99.90
7576;DHT22;3829;50.798;4.358;2023-02-15T07:59:38;5.60;99.90
7576;DHT22;3829;50.798;4.358;2023-02-15T08:02:09;5.70;99.90
7576;DHT22;3829;50.798;4.358;2023-02-15T08:04:34;5.80;99.90
7576;DHT22;3829;50.798;4.358;2023-02-15T08:07:00;5.80;99.90
7576;DHT22;3829;50.798;4.358;2023-02-15T08:09:25;5.90;99.90
7576;DHT22;3829;50.798;4.358;2023-02-15T08:11:51;6.10;99.90
7576;DHT22;3829;50.798;4.358;2023-02-15T08:14:21;6.10;99.90
7576;DHT22;3829;50.798;4.358;2023-02-15T08:16:54;6.30;99.90
7576;DHT22;3829;50.798;4.358;2023-02-15T08:19:29;6.40;99.90
7576;DHT22;3829;50.798;4.358;2023-02-15T08:21:57;6.50;99.90
7576;DHT22;3829;50.798;4.358;2023-02-15T08:24:25;6.70;99.90
7576;DHT22;3829;50.798;4.358;2023-02-15T08:26:51;6.80;99.90
7576;DHT22;3829;50.798;4.358;2023-02-15T08:29:20;7.00;99.90
7576;DHT22;3829;50.798;4.358;2023-02-15T08:31:48;7.10;99.90
7576;DHT22;3829;50.798;4.358;2023-02-15T08:34:17;7.30;99.90
7576;DHT22;3829;50.798;4.358;2023-02-15T08:36:43;7.30;99.90
7576;DHT22;3829;50.798;4.358;2023-02-15T08:39:10;7.50;99.90
7576;DHT22;3829;50.798;4.358;2023-02-15T08:41:38;7.70;99.90
7576;DHT22;3829;50.798;4.358;2023-02-15T08:44:06;7.90;99.90
7576;DHT22;3829;50.798;4.358;2023-02-15T08:46:34;8.00;99.90
7576;DHT22;3829;50.798;4.358;2023-02-15T08:49:01;8.10;99.90
7576;DHT22;3829;50.798;4.358;2023-02-15T08:51:35;8.20;99.90
7576;DHT22;3829;50.798;4.358;2023-02-15T08:54:04;8.30;99.90
7576;DHT22;3829;50.798;4.358;2023-02-15T08:56:34;8.30;99.90
7576;DHT22;3829;50.798;4.358;2023-02-15T08:59:00;8.50;99.90
7576;DHT22;3829;50.798;4.358;2023-02-15T09:01:28;8.50;99.90
7576;DHT22;3829;50.798;4.358;2023-02-15T09:04:02;8.70;99.90
7576;DHT22;3829;50.798;4.358;2023-02-15T09:06:32;8.80;99.90
7576;DHT22;3829;50.798;4.358;2023-02-15T09:08:58;8.80;99.90
7576;DHT22;3829;50.798;4.358;2023-02-15T09:11:26;8.90;99.90
7576;DHT22;3829;50.798;4.358;2023-02-15T09:13:53;9.00;99.90
7576;DHT22;3829;50.798;4.358;2023-02-15T09:16:20;9.00;99.90
7576;DHT22;3829;50.798;4.358;2023-02-15T09:18:47;9.10;99.90
7576;DHT22;3829;50.798;4.358;2023-02-15T09:21:15;9.20;99.90
7576;DHT22;3829;50.798;4.358;2023-02-15T09:23:46;9.30;99.90
7576;DHT22;3829;50.798;4.358;2023-02-15T09:26:15;9.50;99.90
7576;DHT22;3829;50.798;4.358;2023-02-15T09:28:41;9.60;99.90
7576;DHT22;3829;50.798;4.358;2023-02-15T09:31:10;9.70;99.90
7576;DHT22;3829;50.798;4.358;2023-02-15T09:33:38;9.80;99.90
7576;DHT22;3829;50.798;4.358;2023-02-15T09:36:04;10.00;99.90
7576;DHT22;3829;50.798;4.358;2023-02-15T09:38:31;10.10;99.90
7576;DHT22;3829;50.798;4.358;2023-02-15T09:47:26;10.40;99.90
7576;DHT22;3829;50.798;4.358;2023-02-15T10:01:15;10.80;99.90
7576;DHT22;3829;50.798;4.358;2023-02-15T10:04:17;10.90;99.90
7576;DHT22;3829;50.798;4.358;2023-02-15T10:15:23;11.40;99.90
7576;DHT22;3829;50.798;4.358;2023-02-15T10:17:59;11.20;99.90
7576;DHT22;3829;50.798;4.358;2023-02-15T10:21:07;11.20;99.90
7576;DHT22;3829;50.798;4.358;2023-02-15T10:29:09;11.40;99.90
7576;DHT22;3829;50.798;4.358;2023-02-15T10:31:50;11.40;99.90
7576;DHT22;3829;50.798;4.358;2023-02-15T10:34:20;11.40;99.90
7576;DHT22;3829;50.798;4.358;2023-02-15T10:44:46;11.90;99.90
7576;DHT22;3829;50.798;4.358;2023-02-15T10:50:47;11.80;99.90
7576;DHT22;3829;50.798;4.358;2023-02-15T11:01:48;12.00;99.90
7576;DHT22;3829;50.798;4.358;2023-02-15T11:04:30;12.20;99.90
7576;DHT22;3829;50.798;4.358;2023-02-15T11:07:11;12.50;99.90
7576;DHT22;3829;50.798;4.358;2023-02-15T11:09:44;12.60;99.90
7576;DHT22;3829;50.798;4.358;2023-02-15T11:12:16;12.60;99.90
7576;DHT22;3829;50.798;4.358;2023-02-15T11:14:52;12.60;99.90
7576;DHT22;3829;50.798;4.358;2023-02-15T11:17:27;12.70;99.90
7576;DHT22;3829;50.798;4.358;2023-02-15T11:22:43;12.90;99.90
7576;DHT22;3829;50.798;4.358;2023-02-15T11:25:28;12.80;99.90
7576;DHT22;3829;50.798;4.358;2023-02-15T11:27:55;13.00;99.90
7576;DHT22;3829;50.798;4.358;2023-02-15T11:30:24;13.10;99.90
7576;DHT22;3829;50.798;4.358;2023-02-15T11:32:53;13.10;99.90
7576;DHT22;3829;50.798;4.358;2023-02-15T11:38:21;13.40;99.90
7576;DHT22;3829;50.798;4.358;2023-02-15T11:40:51;13.60;99.90
7576;DHT22;3829;50.798;4.358;2023-02-15T11:43:31;13.50;99.90
7576;DHT22;3829;50.798;4.358;2023-02-15T11:45:59;13.10;99.90
7576;DHT22;3829;50.798;4.358;2023-02-15T11:48:25;13.20;99.90
7576;DHT22;3829;50.798;4.358;2023-02-15T11:50:50;13.10;99.90
7576;DHT22;3829;50.798;4.358;2023-02-15T11:53:21;13.00;99.90
7576;DHT22;3829;50.798;4.358;2023-02-15T11:55:50;12.80;99.90
7576;DHT22;3829;50.798;4.358;2023-02-15T11:58:39;12.80;99.90
7576;DHT22;3829;50.798;4.358;2023-02-15T12:03:51;13.00;99.90
7576;DHT22;3829;50.798;4.358;2023-02-15T12:06:24;13.00;99.90
7576;DHT22;3829;50.798;4.358;2023-02-15T12:11:40;13.00;99.90
7576;DHT22;3829;50.798;4.358;2023-02-15T12:14:10;12.90;99.90
7576;DHT22;3829;50.798;4.358;2023-02-15T12:16:46;12.70;99.90
7576;DHT22;3829;50.798;4.358;2023-02-15T12:21:51;12.60;99.90
7576;DHT22;3829;50.798;4.358;2023-02-15T12:26:59;12.60;99.90
7576;DHT22;3829;50.798;4.358;2023-02-15T12:29:29;12.60;99.90
7576;DHT22;3829;50.798;4.358;2023-02-15T12:31:56;12.80;99.90
7576;DHT22;3829;50.798;4.358;2023-02-15T12:34:26;12.80;99.90
7576;DHT22;3829;50.798;4.358;2023-02-15T12:36:57;13.00;99.90
7576;DHT22;3829;50.798;4.358;2023-02-15T12:39:27;13.20;99.90
7576;DHT22;3829;50.798;4.358;2023-02-15T12:44:26;13.60;99.90
7576;DHT22;3829;50.798;4.358;2023-02-15T12:47:16;13.60;99.90
7576;DHT22;3829;50.798;4.358;2023-02-15T12:49:44;13.80;99.90
7576;DHT22;3829;50.798;4.358;2023-02-15T12:54:46;14.00;99.90
7576;DHT22;3829;50.798;4.358;2023-02-15T12:57:38;13.70;99.90
7576;DHT22;3829;50.798;4.358;2023-02-15T13:00:06;13.70;99.90
7576;DHT22;3829;50.798;4.358;2023-02-15T13:02:52;13.60;99.90
7576;DHT22;3829;50.798;4.358;2023-02-15T13:05:39;13.80;99.90
7576;DHT22;3829;50.798;4.358;2023-02-15T13:08:18;13.80;99.90
7576;DHT22;3829;50.798;4.358;2023-02-15T13:11:00;13.80;99.90
7576;DHT22;3829;50.798;4.358;2023-02-15T13:13:30;14.00;99.90
7576;DHT22;3829;50.798;4.358;2023-02-15T13:15:59;13.90;99.90
7576;DHT22;3829;50.798;4.358;2023-02-15T13:18:37;13.90;99.90
7576;DHT22;3829;50.798;4.358;2023-02-15T13:21:15;14.10;99.90
7576;DHT22;3829;50.798;4.358;2023-02-15T13:23:46;14.20;99.90
7576;DHT22;3829;50.798;4.358;2023-02-15T13:26:20;14.50;99.90
7576;DHT22;3829;50.798;4.358;2023-02-15T13:28:54;14.70;99.90
7576;DHT22;3829;50.798;4.358;2023-02-15T13:31:23;14.80;99.90
7576;DHT22;3829;50.798;4.358;2023-02-15T13:33:56;15.10;99.90
7576;DHT22;3829;50.798;4.358;2023-02-15T13:39:04;15.00;99.90
7576;DHT22;3829;50.798;4.358;2023-02-15T13:44:47;14.60;99.90
7576;DHT22;3829;50.798;4.358;2023-02-15T13:47:32;14.50;99.90
7576;DHT22;3829;50.798;4.358;2023-02-15T14:01:21;14.40;99.90
7576;DHT22;3829;50.798;4.358;2023-02-15T14:04:30;14.40;99.90
7576;DHT22;3829;50.798;4.358;2023-02-15T14:09:57;14.40;99.90
7576;DHT22;3829;50.798;4.358;2023-02-15T14:12:43;14.30;99.90
7576;DHT22;3829;50.798;4.358;2023-02-15T14:23:57;14.00;99.90
7576;DHT22;3829;50.798;4.358;2023-02-15T14:26:35;14.00;99.90
7576;DHT22;3829;50.798;4.358;2023-02-15T14:32:11;13.80;99.90
7576;DHT22;3829;50.798;4.358;2023-02-15T14:35:14;13.70;99.90
7576;DHT22;3829;50.798;4.358;2023-02-15T14:46:59;13.70;99.90
7576;DHT22;3829;50.798;4.358;2023-02-15T14:49:36;13.70;99.90
7576;DHT22;3829;50.798;4.358;2023-02-15T14:52:09;13.70;99.90
7576;DHT22;3829;50.798;4.358;2023-02-15T15:02:58;13.70;99.90
7576;DHT22;3829;50.798;4.358;2023-02-15T15:05:29;13.70;99.90
7576;DHT22;3829;50.798;4.358;2023-02-15T15:07:58;13.60;99.90
7576;DHT22;3829;50.798;4.358;2023-02-15T15:10:45;13.50;99.90
7576;DHT22;3829;50.798;4.358;2023-02-15T15:15:55;13.40;99.90
7576;DHT22;3829;50.798;4.358;2023-02-15T15:18:44;13.40;99.90
7576;DHT22;3829;50.798;4.358;2023-02-15T15:21:10;13.50;99.90
7576;DHT22;3829;50.798;4.358;2023-02-15T15:23:42;13.50;99.90
7576;DHT22;3829;50.798;4.358;2023-02-15T15:26:28;13.40;99.90
7576;DHT22;3829;50.798;4.358;2023-02-15T15:28:56;13.40;99.90
7576;DHT22;3829;50.798;4.358;2023-02-15T15:31:35;13.40;99.90
7576;DHT22;3829;50.798;4.358;2023-02-15T15:48:41;13.50;99.90
7576;DHT22;3829;50.798;4.358;2023-02-15T15:51:18;13.20;99.90
7576;DHT22;3829;50.798;4.358;2023-02-15T15:53:47;13.10;99.90
7576;DHT22;3829;50.798;4.358;2023-02-15T15:56:18;13.00;99.90
7576;DHT22;3829;50.798;4.358;2023-02-15T15:58:50;12.70;99.90
7576;DHT22;3829;50.798;4.358;2023-02-15T16:01:21;12.60;99.90
7576;DHT22;3829;50.798;4.358;2023-02-15T16:03:51;12.60;99.90
7576;DHT22;3829;50.798;4.358;2023-02-15T16:06:35;12.50;99.90
7576;DHT22;3829;50.798;4.358;2023-02-15T16:09:33;12.30;99.90
7576;DHT22;3829;50.798;4.358;2023-02-15T16:11:58;12.30;99.90
7576;DHT22;3829;50.798;4.358;2023-02-15T16:14:31;12.10;99.90
7576;DHT22;3829;50.798;4.358;2023-02-15T16:17:00;12.00;99.90
7576;DHT22;3829;50.798;4.358;2023-02-15T16:19:36;11.90;99.90
7576;DHT22;3829;50.798;4.358;2023-02-15T16:22:03;11.80;99.90
7576;DHT22;3829;50.798;4.358;2023-02-15T16:27:45;11.70;99.90
7576;DHT22;3829;50.798;4.358;2023-02-15T16:30:32;11.60;99.90
7576;DHT22;3829;50.798;4.358;2023-02-15T16:33:15;11.60;99.90
7576;DHT22;3829;50.798;4.358;2023-02-15T16:36:02;11.50;99.90
7576;DHT22;3829;50.798;4.358;2023-02-15T16:41:08;11.40;99.90
7576;DHT22;3829;50.798;4.358;2023-02-15T16:43:36;11.30;99.90
7576;DHT22;3829;50.798;4.358;2023-02-15T16:46:28;11.20;99.90
7576;DHT22;3829;50.798;4.358;2023-02-15T16:48:58;11.00;99.90
7576;DHT22;3829;50.798;4.358;2023-02-15T16:51:29;11.00;99.90
7576;DHT22;3829;50.798;4.358;2023-02-15T16:53:56;10.90;99.90
7576;DHT22;3829;50.798;4.358;2023-02-15T16:56:25;10.80;99.90
7576;DHT22;3829;50.798;4.358;2023-02-15T16:58:53;10.70;99.90
7576;DHT22;3829;50.798;4.358;2023-02-15T17:01:21;10.60;99.90
7576;DHT22;3829;50.798;4.358;2023-02-15T17:03:50;10.50;99.90
7576;DHT22;3829;50.798;4.358;2023-02-15T17:06:26;10.30;99.90
7576;DHT22;3829;50.798;4.358;2023-02-15T17:08:53;10.20;99.90
7576;DHT22;3829;50.798;4.358;2023-02-15T17:11:36;10.20;99.90
7576;DHT22;3829;50.798;4.358;2023-02-15T17:16:43;9.90;99.90
7576;DHT22;3829;50.798;4.358;2023-02-15T17:19:23;9.80;99.90
7576;DHT22;3829;50.798;4.358;2023-02-15T17:21:53;9.80;99.90
7576;DHT22;3829;50.798;4.358;2023-02-15T17:26:59;9.70;99.90
7576;DHT22;3829;50.798;4.358;2023-02-15T17:29:44;9.60;99.90
7576;DHT22;3829;50.798;4.358;2023-02-15T17:32:20;9.50;99.90
7576;DHT22;3829;50.798;4.358;2023-02-15T17:37:25;9.40;99.90
7576;DHT22;3829;50.798;4.358;2023-02-15T17:39:52;9.40;99.90
7576;DHT22;3829;50.798;4.358;2023-02-15T17:42:17;9.40;99.90
7576;DHT22;3829;50.798;4.358;2023-02-15T17:44:43;9.40;99.90
7576;DHT22;3829;50.798;4.358;2023-02-15T17:47:29;9.50;99.90
7576;DHT22;3829;50.798;4.358;2023-02-15T17:49:55;9.50;99.90
7576;DHT22;3829;50.798;4.358;2023-02-15T17:52:21;9.50;99.90
7576;DHT22;3829;50.798;4.358;2023-02-15T17:54:47;9.50;99.90
7576;DHT22;3829;50.798;4.358;2023-02-15T17:57:31;9.50;99.90
7576;DHT22;3829;50.798;4.358;2023-02-15T17:59:57;9.60;99.90
7576;DHT22;3829;50.798;4.358;2023-02-15T18:02:41;9.60;99.90
7576;DHT22;3829;50.798;4.358;2023-02-15T18:05:26;9.50;99.90
7576;DHT22;3829;50.798;4.358;2023-02-15T18:08:16;9.40;99.90
7576;DHT22;3829;50.798;4.358;2023-02-15T18:11:01;9.50;99.90
7576;DHT22;3829;50.798;4.358;2023-02-15T18:13:45;9.50;99.90
7576;DHT22;3829;50.798;4.358;2023-02-15T18:16:21;9.40;99.90
7576;DHT22;3829;50.798;4.358;2023-02-15T18:18:48;9.30;99.90
7576;DHT22;3829;50.798;4.358;2023-02-15T18:21:14;9.40;99.90
7576;DHT22;3829;50.798;4.358;2023-02-15T18:23:40;9.40;99.90
7576;DHT22;3829;50.798;4.358;2023-02-15T18:26:10;9.40;99.90
7576;DHT22;3829;50.798;4.358;2023-02-15T18:28:37;9.50;99.90
7576;DHT22;3829;50.798;4.358;2023-02-15T18:31:03;9.40;99.90
7576;DHT22;3829;50.798;4.358;2023-02-15T18:33:35;9.30;99.90
7576;DHT22;3829;50.798;4.358;2023-02-15T18:36:03;9.40;99.90
7576;DHT22;3829;50.798;4.358;2023-02-15T18:38:29;9.40;99.90
7576;DHT22;3829;50.798;4.358;2023-02-15T18:40:55;9.40;99.90
7576;DHT22;3829;50.798;4.358;2023-02-15T18:43:21;9.30;99.90
7576;DHT22;3829;50.798;4.358;2023-02-15T18:45:46;9.30;99.90
7576;DHT22;3829;50.798;4.358;2023-02-15T18:48:12;9.20;99.90
7576;DHT22;3829;50.798;4.358;2023-02-15T18:50:39;9.20;99.90
7576;DHT22;3829;50.798;4.358;2023-02-15T18:53:06;9.20;99.90
7576;DHT22;3829;50.798;4.358;2023-02-15T18:55:38;9.10;99.90
7576;DHT22;3829;50.798;4.358;2023-02-15T18:58:03;9.10;99.90
7576;DHT22;3829;50.798;4.358;2023-02-15T19:00:31;9.20;99.90
7576;DHT22;3829;50.798;4.358;2023-02-15T19:02:58;9.10;99.90
7576;DHT22;3829;50.798;4.358;2023-02-15T19:05:25;9.10;99.90
7576;DHT22;3829;50.798;4.358;2023-02-15T19:07:55;9.10;99.90
7576;DHT22;3829;50.798;4.358;2023-02-15T19:10:23;9.10;99.90
7576;DHT22;3829;50.798;4.358;2023-02-15T19:12:50;9.00;99.90
7576;DHT22;3829;50.798;4.358;2023-02-15T19:15:23;8.90;99.90
7576;DHT22;3829;50.798;4.358;2023-02-15T19:17:49;8.80;99.90
7576;DHT22;3829;50.798;4.358;2023-02-15T19:20:22;8.80;99.90
7576;DHT22;3829;50.798;4.358;2023-02-15T19:22:49;8.80;99.90
7576;DHT22;3829;50.798;4.358;2023-02-15T19:25:19;8.70;99.90
7576;DHT22;3829;50.798;4.358;2023-02-15T19:27:46;8.70;99.90
7576;DHT22;3829;50.798;4.358;2023-02-15T19:30:28;8.70;99.90
7576;DHT22;3829;50.798;4.358;2023-02-15T19:32:57;8.60;99.90
7576;DHT22;3829;50.798;4.358;2023-02-15T19:35:26;8.70;99.90
7576;DHT22;3829;50.798;4.358;2023-02-15T19:37:58;8.60;99.90
7576;DHT22;3829;50.798;4.358;2023-02-15T19:40:29;8.50;99.90
7576;DHT22;3829;50.798;4.358;2023-02-15T19:42:56;8.50;99.90
7576;DHT22;3829;50.798;4.358;2023-02-15T19:45:27;8.30;99.90
7576;DHT22;3829;50.798;4.358;2023-02-15T19:47:53;8.20;99.90
7576;DHT22;3829;50.798;4.358;2023-02-15T19:50:30;8.30;99.90